createdAt,value
2018-06-23T00:00:50.240Z,2.93
2018-06-23T00:03:18.977Z,5.67
2018-06-23T00:05:47.723Z,3.40
2018-06-23T00:08:16.475Z,3.93
2018-06-23T00:10:45.259Z,3.90
2018-06-23T00:13:14.071Z,3.80
2018-06-23T00:15:42.835Z,3.90
2018-06-23T00:18:11.583Z,4.70
2018-06-23T00:20:40.172Z,5.90
2018-06-23T00:23:08.836Z,4.80
2018-06-23T00:25:43.193Z,5.53
2018-06-23T00:28:11.971Z,4.57
2018-06-23T00:30:40.565Z,6.63
2018-06-23T00:33:09.037Z,8.77
2018-06-23T00:35:37.799Z,7.67
2018-06-23T00:38:06.693Z,4.27
2018-06-23T00:40:35.507Z,6.57
2018-06-23T00:43:04.324Z,5.77
2018-06-23T00:45:33.092Z,4.53
2018-06-23T00:48:01.693Z,4.93
2018-06-23T00:50:30.152Z,5.80
2018-06-23T00:52:58.794Z,4.53
2018-06-23T00:55:27.603Z,3.83
2018-06-23T00:57:56.351Z,4.50
2018-06-23T01:00:25.132Z,3.57
2018-06-23T01:02:53.962Z,3.87
2018-06-23T01:05:22.720Z,7.93
2018-06-23T01:07:51.513Z,5.70
2018-06-23T01:10:20.280Z,5.93
2018-06-23T01:12:49.114Z,5.83
2018-06-23T01:15:17.956Z,6.97
2018-06-23T01:17:46.731Z,7.50
2018-06-23T01:20:15.526Z,4.00
2018-06-23T01:22:44.317Z,7.13
2018-06-23T01:25:13.111Z,7.27
2018-06-23T01:27:41.878Z,7.87
2018-06-23T01:30:10.635Z,5.07
2018-06-23T01:32:39.412Z,9.83
2018-06-23T01:35:08.175Z,7.63
2018-06-23T01:37:36.975Z,7.10
2018-06-23T01:40:05.783Z,6.20
2018-06-23T01:42:34.539Z,7.30
2018-06-23T01:45:03.319Z,6.93
2018-06-23T01:47:32.101Z,10.37
2018-06-23T01:50:00.915Z,7.90
2018-06-23T01:52:29.707Z,12.53
2018-06-23T01:54:58.427Z,7.63
2018-06-23T01:57:27.201Z,8.13
2018-06-23T01:59:55.973Z,9.30
2018-06-23T02:02:24.799Z,6.53
2018-06-23T02:04:53.580Z,7.80
2018-06-23T02:07:22.395Z,8.00
2018-06-23T02:09:50.982Z,9.27
2018-06-23T02:12:19.731Z,4.77
2018-06-23T02:14:54.052Z,8.80
2018-06-23T02:17:28.288Z,10.87
2018-06-23T02:20:02.557Z,7.23
2018-06-23T02:22:36.740Z,10.07
2018-06-23T02:25:11.083Z,3.90
2018-06-23T02:27:45.322Z,8.73
2018-06-23T02:30:19.430Z,9.10
2018-06-23T02:32:51.981Z,8.77
2018-06-23T02:35:21.292Z,7.30
2018-06-23T02:37:50.081Z,10.63
2018-06-23T02:40:18.832Z,8.67
2018-06-23T02:42:47.441Z,7.10
2018-06-23T02:45:16.186Z,10.40
2018-06-23T02:47:44.937Z,10.70
2018-06-23T02:50:13.708Z,8.43
2018-06-23T02:52:42.460Z,10.13
2018-06-23T02:55:11.211Z,10.63
2018-06-23T02:57:39.959Z,8.67
2018-06-23T03:00:08.714Z,8.93
2018-06-23T03:02:37.553Z,7.83
2018-06-23T03:05:12.780Z,10.83
2018-06-23T03:07:41.543Z,9.23
2018-06-23T03:10:10.280Z,16.30
2018-06-23T03:12:39.035Z,13.90
2018-06-23T03:15:07.683Z,14.63
2018-06-23T03:17:36.354Z,8.27
2018-06-23T03:20:05.150Z,7.60
2018-06-23T03:22:33.899Z,12.80
2018-06-23T03:25:02.858Z,16.27
2018-06-23T03:27:31.638Z,17.27
2018-06-23T03:30:00.489Z,9.80
2018-06-23T03:32:29.333Z,10.97
2018-06-23T03:34:58.138Z,19.20
2018-06-23T03:37:26.920Z,16.43
2018-06-23T03:39:55.528Z,13.03
2018-06-23T03:42:24.029Z,11.00
2018-06-23T03:44:52.620Z,9.77
2018-06-23T03:47:21.361Z,11.40
2018-06-23T03:49:49.962Z,13.80
2018-06-23T03:52:18.574Z,10.97
2018-06-23T03:54:47.473Z,13.60
2018-06-23T03:57:16.221Z,11.27
2018-06-23T03:59:44.943Z,11.50
2018-06-23T04:02:13.725Z,10.47
2018-06-23T04:04:42.620Z,12.13
2018-06-23T04:07:11.351Z,17.67
2018-06-23T04:09:40.144Z,11.13
2018-06-23T04:12:08.867Z,13.00
2018-06-23T04:14:37.692Z,11.43
2018-06-23T04:17:06.485Z,14.73
2018-06-23T04:19:35.249Z,12.10
2018-06-23T04:22:04.117Z,11.13
2018-06-23T04:24:32.898Z,11.07
2018-06-23T04:27:01.640Z,8.97
2018-06-23T04:29:30.410Z,9.97
2018-06-23T04:31:59.205Z,8.80
2018-06-23T04:34:27.965Z,11.53
2018-06-23T04:36:57.524Z,12.57
2018-06-23T04:39:26.338Z,13.77
2018-06-23T04:41:55.112Z,13.00
2018-06-23T04:44:23.755Z,9.37
2018-06-23T04:46:53.033Z,12.83
2018-06-23T04:49:21.835Z,10.17
2018-06-23T04:51:50.677Z,10.53
2018-06-23T04:54:19.486Z,9.40
2018-06-23T04:56:48.222Z,17.63
2018-06-23T05:00:20.203Z,10.00
2018-06-23T05:02:48.953Z,11.73
2018-06-23T05:05:17.702Z,10.10
2018-06-23T05:07:46.306Z,10.33
2018-06-23T05:10:15.113Z,8.90
2018-06-23T05:12:43.891Z,10.57
2018-06-23T05:15:12.699Z,9.93
2018-06-23T05:17:41.495Z,11.47
2018-06-23T05:20:10.336Z,12.03
2018-06-23T05:22:39.813Z,13.07
2018-06-23T05:25:08.664Z,13.80
2018-06-23T05:27:37.526Z,12.60
2018-06-23T05:30:06.315Z,12.63
2018-06-23T05:32:34.926Z,14.30
2018-06-23T05:35:03.592Z,13.60
2018-06-23T05:37:32.225Z,10.10
2018-06-23T05:40:00.988Z,12.77
2018-06-23T05:42:29.820Z,9.67
2018-06-23T05:44:58.634Z,12.00
2018-06-23T05:47:27.428Z,11.30
2018-06-23T05:49:56.173Z,11.33
2018-06-23T05:52:25.046Z,10.13
2018-06-23T05:54:53.852Z,8.97
2018-06-23T05:57:22.758Z,7.13
2018-06-23T05:59:51.534Z,8.33
2018-06-23T06:02:20.297Z,6.10
2018-06-23T06:04:49.074Z,10.53
2018-06-23T06:07:17.892Z,9.67
2018-06-23T06:09:46.683Z,9.30
2018-06-23T06:12:15.504Z,7.93
2018-06-23T06:14:44.290Z,13.43
2018-06-23T06:17:24.532Z,9.40
2018-06-23T06:19:54.523Z,10.00
2018-06-23T06:22:24.650Z,9.33
2018-06-23T06:24:53.406Z,10.67
2018-06-23T06:27:22.295Z,10.57
2018-06-23T06:29:51.745Z,12.43
2018-06-23T06:32:20.542Z,8.80
2018-06-23T06:34:49.283Z,9.10
2018-06-23T06:37:18.039Z,9.70
2018-06-23T06:39:47.193Z,14.90
2018-06-23T06:42:16.241Z,9.37
2018-06-23T06:44:45.050Z,8.63
2018-06-23T06:47:15.370Z,10.97
2018-06-23T06:49:43.963Z,9.00
2018-06-23T06:52:12.396Z,9.50
2018-06-23T06:54:41.239Z,8.43
2018-06-23T06:57:10.061Z,7.43
2018-06-23T06:59:38.888Z,11.97
2018-06-23T07:02:07.826Z,9.60
2018-06-23T07:04:36.600Z,7.63
2018-06-23T07:07:05.369Z,6.67
2018-06-23T07:09:34.140Z,11.03
2018-06-23T07:12:02.895Z,6.37
2018-06-23T07:14:31.734Z,4.60
2018-06-23T07:17:00.319Z,6.50
2018-06-23T07:19:29.014Z,4.97
2018-06-23T07:21:57.873Z,6.87
2018-06-23T07:24:26.640Z,6.17
2018-06-23T07:26:55.470Z,8.93
2018-06-23T07:29:24.211Z,5.07
2018-06-23T07:31:52.997Z,5.87
2018-06-23T07:34:21.821Z,6.37
2018-06-23T07:36:50.626Z,6.43
2018-06-23T07:39:19.428Z,5.83
2018-06-23T07:41:48.152Z,4.80
2018-06-23T07:44:17.074Z,5.13
2018-06-23T07:46:45.853Z,4.40
2018-06-23T07:49:14.703Z,3.77
2018-06-23T07:51:43.481Z,6.13
2018-06-23T07:54:12.369Z,5.77
2018-06-23T07:56:41.092Z,5.70
2018-06-23T07:59:10.030Z,4.40
2018-06-23T08:01:38.790Z,8.10
2018-06-23T08:04:07.568Z,4.27
2018-06-23T08:06:36.332Z,4.37
2018-06-23T08:09:07.747Z,7.10
2018-06-23T08:11:36.609Z,8.03
2018-06-23T08:14:05.387Z,6.07
2018-06-23T08:16:34.216Z,5.97
2018-06-23T08:19:02.795Z,5.03
2018-06-23T08:21:31.480Z,7.87
2018-06-23T08:24:00.361Z,8.17
2018-06-23T08:26:29.109Z,6.33
2018-06-23T08:28:57.874Z,5.63
2018-06-23T08:31:26.661Z,5.07
2018-06-23T08:33:55.411Z,4.77
2018-06-23T08:36:24.164Z,6.20
2018-06-23T08:38:52.965Z,5.40
2018-06-23T08:41:21.758Z,4.40
2018-06-23T08:43:50.680Z,6.60
2018-06-23T08:46:19.560Z,4.13
2018-06-23T08:48:48.306Z,4.00
2018-06-23T08:51:17.139Z,2.00
2018-06-23T08:53:45.902Z,2.93
2018-06-23T08:56:14.672Z,2.27
2018-06-23T08:58:43.433Z,3.90
2018-06-23T09:01:12.360Z,3.17
2018-06-23T09:03:41.128Z,4.03
2018-06-23T09:06:09.912Z,3.20
2018-06-23T09:08:38.808Z,3.40
2018-06-23T09:11:07.576Z,3.73
2018-06-23T09:13:36.209Z,1.50
2018-06-23T09:16:04.842Z,3.97
2018-06-23T09:18:33.415Z,2.07
2018-06-23T09:21:02.043Z,1.53
2018-06-23T09:23:30.784Z,1.83
2018-06-23T09:25:59.696Z,5.20
2018-06-23T09:28:28.486Z,1.77
2018-06-23T09:30:57.071Z,2.27
2018-06-23T09:33:25.709Z,6.10
2018-06-23T09:35:54.541Z,1.70
2018-06-23T09:38:23.397Z,2.70
2018-06-23T09:40:52.242Z,1.57
2018-06-23T09:43:21.009Z,1.40
2018-06-23T09:45:49.620Z,2.30
2018-06-23T09:48:18.317Z,1.77
2018-06-23T09:50:47.164Z,3.13
2018-06-23T09:53:15.925Z,1.40
2018-06-23T09:55:44.704Z,3.13
2018-06-23T09:58:13.489Z,2.13
2018-06-23T10:00:42.293Z,2.70
2018-06-23T10:03:11.191Z,2.60
2018-06-23T10:05:39.913Z,4.73
2018-06-23T10:08:08.760Z,3.07
2018-06-23T10:10:37.560Z,4.23
2018-06-23T10:13:06.267Z,4.87
2018-06-23T10:15:41.357Z,3.20
2018-06-23T10:18:09.980Z,3.50
2018-06-23T10:20:38.728Z,2.57
2018-06-23T10:23:07.486Z,2.87
2018-06-23T10:25:36.228Z,2.77
2018-06-23T10:28:05.067Z,5.60
2018-06-23T10:30:33.927Z,2.53
2018-06-23T10:33:02.697Z,5.10
2018-06-23T10:35:31.496Z,2.53
2018-06-23T10:38:00.324Z,5.67
2018-06-23T10:40:29.220Z,3.67
2018-06-23T10:42:57.977Z,1.93
2018-06-23T10:45:26.796Z,2.93
2018-06-23T10:47:55.624Z,4.20
2018-06-23T10:50:24.433Z,2.70
2018-06-23T10:52:53.340Z,3.10
2018-06-23T10:55:22.180Z,2.70
2018-06-23T10:57:51.007Z,3.67
2018-06-23T11:00:19.847Z,4.80
2018-06-23T11:02:48.574Z,5.03
2018-06-23T11:05:17.321Z,5.03
2018-06-23T11:07:46.207Z,1.93
2018-06-23T11:10:15.033Z,2.40
2018-06-23T11:12:50.591Z,5.27
2018-06-23T11:15:19.364Z,4.03
2018-06-23T11:17:48.152Z,2.50
2018-06-23T11:20:16.917Z,2.53
2018-06-23T11:22:45.656Z,0.87
2018-06-23T11:25:14.566Z,3.33
2018-06-23T11:27:43.235Z,1.90
2018-06-23T11:30:11.920Z,3.00
2018-06-23T11:32:40.705Z,3.43
2018-06-23T11:35:09.699Z,2.90
2018-06-23T11:37:38.459Z,0.97
2018-06-23T11:40:07.238Z,1.97
2018-06-23T11:42:36.071Z,2.20
2018-06-23T11:45:04.882Z,3.40
2018-06-23T11:47:33.469Z,1.43
2018-06-23T11:50:02.188Z,2.97
2018-06-23T11:52:31.055Z,2.33
2018-06-23T11:54:59.739Z,2.23
2018-06-23T11:57:28.521Z,2.77
2018-06-23T11:59:57.325Z,2.17
2018-06-23T12:02:26.077Z,2.03
2018-06-23T12:04:54.979Z,3.03
2018-06-23T12:07:23.863Z,1.40
2018-06-23T12:09:52.616Z,3.63
2018-06-23T12:12:21.430Z,3.70
2018-06-23T12:14:50.248Z,2.87
2018-06-23T12:17:19.067Z,2.07
2018-06-23T12:19:47.891Z,3.77
2018-06-23T12:22:16.652Z,6.63
2018-06-23T12:24:45.444Z,2.23
2018-06-23T12:27:14.188Z,2.13
2018-06-23T12:29:42.983Z,2.07
2018-06-23T12:32:11.711Z,1.33
2018-06-23T12:34:40.461Z,1.43
2018-06-23T12:37:09.260Z,2.03
2018-06-23T12:39:38.990Z,1.83
2018-06-23T12:42:07.739Z,2.67
2018-06-23T12:44:36.482Z,7.23
2018-06-23T12:47:05.569Z,5.93
2018-06-23T12:49:34.394Z,2.17
2018-06-23T12:52:03.143Z,1.57
2018-06-23T12:54:31.882Z,4.30
2018-06-23T12:57:01.335Z,1.97
2018-06-23T12:59:30.123Z,2.53
2018-06-23T13:01:59.019Z,2.40
2018-06-23T13:04:27.899Z,2.80
2018-06-23T13:06:56.432Z,1.37
2018-06-23T13:09:25.179Z,3.43
2018-06-23T13:11:53.931Z,2.23
2018-06-23T13:14:22.684Z,5.07
2018-06-23T13:16:51.453Z,2.33
2018-06-23T13:19:20.303Z,2.83
2018-06-23T13:21:49.063Z,5.23
2018-06-23T13:24:17.811Z,2.80
2018-06-23T13:26:46.595Z,4.53
2018-06-23T13:29:15.323Z,1.57
2018-06-23T13:31:44.108Z,1.77
2018-06-23T13:34:12.864Z,2.33
2018-06-23T13:36:41.689Z,1.70
2018-06-23T13:39:10.890Z,3.10
2018-06-23T13:41:39.670Z,2.63
2018-06-23T13:44:08.406Z,6.13
2018-06-23T13:46:37.177Z,3.40
2018-06-23T13:49:05.740Z,2.50
2018-06-23T13:51:34.409Z,4.13
2018-06-23T13:54:03.427Z,8.53
2018-06-23T13:56:32.226Z,1.83
2018-06-23T13:59:00.956Z,2.17
2018-06-23T14:01:29.725Z,4.27
2018-06-23T14:03:58.508Z,6.67
2018-06-23T14:06:27.332Z,4.23
2018-06-23T14:08:56.129Z,5.47
2018-06-23T14:11:24.943Z,4.03
2018-06-23T14:13:53.750Z,4.53
2018-06-23T14:16:22.424Z,4.83
2018-06-23T14:18:51.131Z,3.70
2018-06-23T14:21:19.961Z,3.13
2018-06-23T14:23:48.708Z,4.37
2018-06-23T14:26:17.444Z,5.13
2018-06-23T14:28:46.302Z,2.73
2018-06-23T14:31:15.289Z,4.27
2018-06-23T14:33:43.960Z,2.83
2018-06-23T14:36:12.607Z,4.87
2018-06-23T14:38:41.333Z,2.93
2018-06-23T14:41:10.011Z,2.97
2018-06-23T14:43:38.649Z,4.43
2018-06-23T14:46:07.420Z,2.53
2018-06-23T14:48:36.158Z,2.83
2018-06-23T14:51:04.967Z,2.77
2018-06-23T14:53:33.729Z,2.43
2018-06-23T14:56:02.480Z,6.53
2018-06-23T14:58:31.281Z,3.13
2018-06-23T15:01:00.093Z,2.23
2018-06-23T15:03:28.860Z,5.03
2018-06-23T15:05:57.641Z,4.97
2018-06-23T15:08:37.856Z,5.73
2018-06-23T15:11:18.008Z,3.20
2018-06-23T15:13:46.616Z,6.00
2018-06-23T15:16:15.063Z,6.27
2018-06-23T15:18:43.760Z,3.87
2018-06-23T15:21:12.334Z,6.33
2018-06-23T15:23:40.988Z,4.63
2018-06-23T15:26:09.780Z,9.33
2018-06-23T15:28:38.632Z,6.63
2018-06-23T15:31:07.474Z,7.57
2018-06-23T15:33:36.368Z,3.93
2018-06-23T15:36:05.256Z,5.13
2018-06-23T15:38:34.040Z,3.37
2018-06-23T15:41:02.789Z,6.00
2018-06-23T15:43:31.672Z,5.43
2018-06-23T15:46:00.489Z,6.97
2018-06-23T15:48:29.266Z,7.83
2018-06-23T15:50:58.067Z,5.30
2018-06-23T15:53:26.819Z,5.13
2018-06-23T15:55:55.572Z,3.60
2018-06-23T15:58:24.353Z,7.13
2018-06-23T16:00:53.108Z,5.67
2018-06-23T16:03:21.916Z,4.73
2018-06-23T16:05:50.671Z,3.47
2018-06-23T16:08:19.413Z,4.97
2018-06-23T16:10:48.197Z,6.87
2018-06-23T16:13:17.006Z,3.37
2018-06-23T16:15:45.793Z,6.50
2018-06-23T16:18:14.531Z,7.03
2018-06-23T16:20:43.295Z,3.37
2018-06-23T16:23:12.094Z,2.80
2018-06-23T16:25:40.854Z,3.47
2018-06-23T16:28:09.598Z,5.23
2018-06-23T16:30:38.399Z,6.83
2018-06-23T16:33:07.148Z,6.93
2018-06-23T16:35:35.913Z,7.50
2018-06-23T16:38:05.156Z,5.13
2018-06-23T16:40:34.399Z,4.40
2018-06-23T16:43:03.500Z,5.43
2018-06-23T16:45:32.309Z,6.77
2018-06-23T16:48:01.080Z,3.27
2018-06-23T16:50:29.803Z,5.67
2018-06-23T16:52:58.664Z,4.93
2018-06-23T16:55:27.365Z,6.07
2018-06-23T16:57:55.846Z,3.40
2018-06-23T17:00:24.361Z,5.50
2018-06-23T17:02:53.029Z,6.47
2018-06-23T17:05:21.755Z,4.40
2018-06-23T17:07:50.509Z,5.00
2018-06-23T17:10:19.285Z,7.53
2018-06-23T17:12:48.135Z,4.67
2018-06-23T17:15:16.864Z,4.07
2018-06-23T17:17:45.815Z,3.30
2018-06-23T17:20:14.550Z,3.83
2018-06-23T17:22:43.401Z,5.47
2018-06-23T17:25:12.155Z,3.50
2018-06-23T17:27:40.990Z,2.20
2018-06-23T17:30:09.603Z,7.80
2018-06-23T17:32:38.238Z,5.30
2018-06-23T17:35:06.950Z,3.63
2018-06-23T17:37:35.726Z,2.57
2018-06-23T17:40:04.356Z,4.57
2018-06-23T17:42:33.000Z,4.33
2018-06-23T17:45:01.807Z,2.00
2018-06-23T17:47:30.542Z,3.27
2018-06-23T17:49:59.310Z,2.80
2018-06-23T17:52:28.094Z,4.00
2018-06-23T17:54:56.922Z,3.60
2018-06-23T17:57:26.016Z,3.00
2018-06-23T17:59:54.828Z,3.10
2018-06-23T18:02:23.457Z,2.53
2018-06-23T18:04:52.195Z,3.50
2018-06-23T18:07:21.026Z,3.43
2018-06-23T18:09:49.771Z,4.83
2018-06-23T18:12:18.476Z,2.73
2018-06-23T18:14:47.040Z,4.80
2018-06-23T18:17:15.801Z,4.33
2018-06-23T18:19:44.727Z,2.93
2018-06-23T18:22:13.482Z,3.83
2018-06-23T18:24:42.219Z,3.53
2018-06-23T18:27:10.801Z,4.47
2018-06-23T18:29:39.435Z,3.43
2018-06-23T18:32:08.888Z,3.60
2018-06-23T18:34:37.620Z,2.63
2018-06-23T18:37:06.422Z,5.50
2018-06-23T18:39:35.185Z,3.97
2018-06-23T18:42:03.952Z,2.50
2018-06-23T18:44:32.682Z,2.00
2018-06-23T18:47:01.410Z,3.63
2018-06-23T18:49:29.972Z,3.10
2018-06-23T18:51:58.583Z,3.77
2018-06-23T18:54:27.326Z,2.50
2018-06-23T18:56:56.092Z,2.03
2018-06-23T18:59:24.905Z,3.60
2018-06-23T19:01:53.644Z,3.30
2018-06-23T19:04:22.494Z,4.37
2018-06-23T19:06:51.285Z,3.93
2018-06-23T19:09:20.117Z,4.73
2018-06-23T19:11:48.801Z,3.37
2018-06-23T19:14:17.581Z,3.63
2018-06-23T19:16:46.138Z,3.17
2018-06-23T19:19:14.781Z,1.70
2018-06-23T19:21:43.610Z,1.90
2018-06-23T19:24:12.367Z,2.10
2018-06-23T19:26:41.149Z,1.40
2018-06-23T19:29:09.925Z,2.50
2018-06-23T19:31:38.699Z,2.07
2018-06-23T19:34:07.473Z,0.97
2018-06-23T19:36:36.194Z,1.40
2018-06-23T19:39:07.656Z,1.07
2018-06-23T19:41:36.591Z,1.27
2018-06-23T19:44:05.485Z,1.70
2018-06-23T19:46:34.188Z,4.00
2018-06-23T19:49:02.782Z,2.10
2018-06-23T19:51:31.414Z,1.03
2018-06-23T19:54:00.197Z,1.10
2018-06-23T19:56:28.952Z,2.33
2018-06-23T19:58:57.761Z,2.80
2018-06-23T20:01:26.589Z,1.50
2018-06-23T20:03:55.274Z,2.40
2018-06-23T20:06:24.024Z,1.90
2018-06-23T20:08:52.763Z,1.37
2018-06-23T20:11:21.506Z,1.40
2018-06-23T20:13:50.306Z,2.60
2018-06-23T20:16:19.044Z,1.43
2018-06-23T20:18:47.858Z,1.33
2018-06-23T20:21:16.600Z,1.50
2018-06-23T20:23:45.341Z,1.70
2018-06-23T20:26:14.141Z,1.73
2018-06-23T20:28:42.925Z,1.40
2018-06-23T20:31:11.847Z,2.13
2018-06-23T20:33:40.701Z,1.67
2018-06-23T20:36:10.627Z,4.80
2018-06-23T20:38:40.019Z,2.10
2018-06-23T20:41:08.957Z,1.67
2018-06-23T20:43:37.765Z,1.77
2018-06-23T20:46:06.319Z,2.40
2018-06-23T20:48:34.974Z,2.23
2018-06-23T20:51:03.723Z,3.03
2018-06-23T20:53:32.623Z,1.43
2018-06-23T20:56:01.368Z,1.50
2018-06-23T20:58:30.177Z,1.50
2018-06-23T21:00:58.966Z,1.83
2018-06-23T21:03:27.689Z,1.13
2018-06-23T21:05:56.440Z,2.87
2018-06-23T21:08:25.187Z,1.90
2018-06-23T21:10:54.126Z,2.40
2018-06-23T21:13:22.835Z,8.50
2018-06-23T21:15:51.595Z,4.53
2018-06-23T21:18:20.349Z,1.70
2018-06-23T21:20:49.533Z,1.83
2018-06-23T21:23:18.044Z,1.40
2018-06-23T21:25:46.680Z,1.60
2018-06-23T21:28:15.596Z,2.03
2018-06-23T21:30:44.386Z,1.77
2018-06-23T21:33:13.225Z,1.47
2018-06-23T21:35:42.130Z,1.17
2018-06-23T21:38:11.023Z,2.17
2018-06-23T21:40:39.717Z,1.93
2018-06-23T21:43:08.298Z,2.63
2018-06-23T21:45:36.991Z,3.40
2018-06-23T21:48:05.744Z,3.77
2018-06-23T21:50:34.512Z,2.73
2018-06-23T21:53:03.308Z,2.00
2018-06-23T21:55:32.064Z,1.83
2018-06-23T21:58:00.905Z,4.57
2018-06-23T22:00:34.569Z,4.03
2018-06-23T22:03:05.682Z,1.97
2018-06-23T22:05:35.014Z,2.50
2018-06-23T22:08:04.288Z,4.03
2018-06-23T22:10:33.048Z,1.57
2018-06-23T22:13:02.457Z,2.93
2018-06-23T22:15:31.210Z,1.63
2018-06-23T22:18:00.028Z,1.60
2018-06-23T22:20:28.744Z,1.40
2018-06-23T22:22:57.532Z,3.23
2018-06-23T22:25:26.323Z,2.23
2018-06-23T22:27:55.064Z,3.00
2018-06-23T22:30:23.884Z,4.97
2018-06-23T22:32:52.628Z,4.40
2018-06-23T22:35:21.370Z,5.40
2018-06-23T22:37:50.112Z,4.47
2018-06-23T22:40:18.854Z,7.80
2018-06-23T22:42:47.613Z,5.43
2018-06-23T22:45:16.201Z,5.07
2018-06-23T22:47:44.839Z,4.90
2018-06-23T22:50:13.601Z,7.23
2018-06-23T22:52:42.345Z,7.13
2018-06-23T22:55:11.489Z,4.80
2018-06-23T22:57:40.339Z,4.63
2018-06-23T23:00:11.007Z,4.60
2018-06-23T23:02:39.784Z,6.17
2018-06-23T23:05:09.191Z,11.07
2018-06-23T23:07:38.166Z,7.07
2018-06-23T23:10:07.299Z,6.27
2018-06-23T23:12:35.941Z,11.60
2018-06-23T23:15:04.874Z,7.33
2018-06-23T23:17:33.324Z,6.73
2018-06-23T23:20:02.245Z,8.47
2018-06-23T23:22:31.340Z,7.10
2018-06-23T23:25:00.101Z,7.57
2018-06-23T23:27:28.714Z,6.03
2018-06-23T23:29:57.143Z,7.30
2018-06-23T23:32:25.793Z,5.30
2018-06-23T23:34:54.597Z,6.50
2018-06-23T23:37:23.417Z,8.73
2018-06-23T23:39:52.195Z,6.00
2018-06-23T23:42:20.950Z,6.60
2018-06-23T23:44:49.692Z,6.27
2018-06-23T23:47:18.347Z,8.83
2018-06-23T23:49:46.962Z,5.60
2018-06-23T23:52:15.719Z,6.60
2018-06-23T23:54:44.522Z,4.60
2018-06-23T23:57:13.260Z,8.33
2018-06-23T23:59:42.031Z,4.47
